sensor_id;sensor_type;location;lat;lon;timestamp;P1;durP1;ratioP1;P2;durP2;ratioP2
63690;SDS011;49837;57.280;27.070;2022-10-17T00:00:29;24.3;;;12.3;;
63690;SDS011;49837;57.280;27.070;2022-10-17T00:01:30;27.4;;;12.4;;
63690;SDS011;49837;57.280;27.070;2022-10-17T00:02:30;27.8;;;12.3;;
63690;SDS011;49837;57.280;27.070;2022-10-17T00:03:31;28.7;;;12.4;;
63690;SDS011;49837;57.280;27.070;2022-10-17T00:05:32;22.2;;;11.6;;
63690;SDS011;49837;57.280;27.070;2022-10-17T00:06:32;28.6;;;12.2;;
63690;SDS011;49837;57.280;27.070;2022-10-17T00:07:32;23.5;;;12.1;;
63690;SDS011;49837;57.280;27.070;2022-10-17T00:08:33;26.5;;;11.5;;
63690;SDS011;49837;57.280;27.070;2022-10-17T00:09:33;23.9;;;11.5;;
63690;SDS011;49837;57.280;27.070;2022-10-17T00:10:34;26.3;;;11.4;;
63690;SDS011;49837;57.280;27.070;2022-10-17T00:11:34;21.9;;;11.1;;
63690;SDS011;49837;57.280;27.070;2022-10-17T00:12:34;27.3;;;12.1;;
63690;SDS011;49837;57.280;27.070;2022-10-17T00:13:35;26.8;;;11.8;;
63690;SDS011;49837;57.280;27.070;2022-10-17T00:14:36;25.0;;;11.7;;
63690;SDS011;49837;57.280;27.070;2022-10-17T00:15:36;191.6;;;76.3;;
63690;SDS011;49837;57.280;27.070;2022-10-17T00:16:36;308.2;;;115.3;;
63690;SDS011;49837;57.280;27.070;2022-10-17T00:17:37;422.7;;;154.5;;
63690;SDS011;49837;57.280;27.070;2022-10-17T00:18:37;258.5;;;92.8;;
63690;SDS011;49837;57.280;27.070;2022-10-17T00:19:37;56.7;;;22.7;;
63690;SDS011;49837;57.280;27.070;2022-10-17T00:20:38;41.9;;;15.3;;
63690;SDS011;49837;57.280;27.070;2022-10-17T00:21:38;25.3;;;12.0;;
63690;SDS011;49837;57.280;27.070;2022-10-17T00:22:39;29.3;;;13.2;;
63690;SDS011;49837;57.280;27.070;2022-10-17T00:23:39;20.9;;;11.2;;
63690;SDS011;49837;57.280;27.070;2022-10-17T00:24:40;24.4;;;12.3;;
63690;SDS011;49837;57.280;27.070;2022-10-17T00:25:40;23.3;;;11.8;;
63690;SDS011;49837;57.280;27.070;2022-10-17T00:26:40;24.2;;;10.6;;
63690;SDS011;49837;57.280;27.070;2022-10-17T00:27:41;23.6;;;11.4;;
63690;SDS011;49837;57.280;27.070;2022-10-17T00:28:42;22.0;;;10.9;;
63690;SDS011;49837;57.280;27.070;2022-10-17T00:29:43;25.9;;;10.9;;
63690;SDS011;49837;57.280;27.070;2022-10-17T00:30:44;19.6;;;11.5;;
63690;SDS011;49837;57.280;27.070;2022-10-17T00:31:44;25.5;;;12.3;;
63690;SDS011;49837;57.280;27.070;2022-10-17T00:32:45;25.8;;;11.1;;
63690;SDS011;49837;57.280;27.070;2022-10-17T00:33:45;20.9;;;10.1;;
63690;SDS011;49837;57.280;27.070;2022-10-17T00:34:46;24.3;;;11.0;;
63690;SDS011;49837;57.280;27.070;2022-10-17T00:35:46;24.3;;;10.6;;
63690;SDS011;49837;57.280;27.070;2022-10-17T00:36:47;22.5;;;10.1;;
63690;SDS011;49837;57.280;27.070;2022-10-17T00:37:47;22.4;;;10.1;;
63690;SDS011;49837;57.280;27.070;2022-10-17T00:38:49;23.0;;;10.7;;
63690;SDS011;49837;57.280;27.070;2022-10-17T00:39:48;20.2;;;10.5;;
63690;SDS011;49837;57.280;27.070;2022-10-17T00:40:48;21.7;;;10.5;;
63690;SDS011;49837;57.280;27.070;2022-10-17T00:41:49;24.8;;;10.8;;
63690;SDS011;49837;57.280;27.070;2022-10-17T00:42:49;22.0;;;10.4;;
63690;SDS011;49837;57.280;27.070;2022-10-17T00:44:00;23.6;;;11.9;;
63690;SDS011;49837;57.280;27.070;2022-10-17T00:45:00;26.9;;;11.5;;
63690;SDS011;49837;57.280;27.070;2022-10-17T00:45:55;22.0;;;10.4;;
63690;SDS011;49837;57.280;27.070;2022-10-17T00:47:02;21.9;;;10.7;;
63690;SDS011;49837;57.280;27.070;2022-10-17T00:48:04;29.4;;;10.7;;
63690;SDS011;49837;57.280;27.070;2022-10-17T00:49:02;23.7;;;10.0;;
63690;SDS011;49837;57.280;27.070;2022-10-17T00:50:04;18.6;;;9.6;;
63690;SDS011;49837;57.280;27.070;2022-10-17T00:51:05;20.9;;;10.3;;
63690;SDS011;49837;57.280;27.070;2022-10-17T00:52:07;22.6;;;9.8;;
63690;SDS011;49837;57.280;27.070;2022-10-17T00:53:07;23.2;;;9.7;;
63690;SDS011;49837;57.280;27.070;2022-10-17T00:54:08;25.2;;;10.3;;
63690;SDS011;49837;57.280;27.070;2022-10-17T00:55:09;23.9;;;9.9;;
63690;SDS011;49837;57.280;27.070;2022-10-17T00:56:12;26.6;;;9.7;;
63690;SDS011;49837;57.280;27.070;2022-10-17T00:57:13;20.0;;;9.5;;
63690;SDS011;49837;57.280;27.070;2022-10-17T00:58:13;21.6;;;9.7;;
63690;SDS011;49837;57.280;27.070;2022-10-17T00:59:14;22.8;;;9.6;;
63690;SDS011;49837;57.280;27.070;2022-10-17T01:00:14;21.0;;;9.3;;
63690;SDS011;49837;57.280;27.070;2022-10-17T01:01:14;19.0;;;9.1;;
63690;SDS011;49837;57.280;27.070;2022-10-17T01:02:15;21.5;;;9.3;;
63690;SDS011;49837;57.280;27.070;2022-10-17T01:03:15;21.5;;;9.4;;
63690;SDS011;49837;57.280;27.070;2022-10-17T01:04:16;20.6;;;9.1;;
63690;SDS011;49837;57.280;27.070;2022-10-17T01:05:17;21.3;;;9.6;;
63690;SDS011;49837;57.280;27.070;2022-10-17T01:06:17;21.9;;;9.3;;
63690;SDS011;49837;57.280;27.070;2022-10-17T01:07:17;21.3;;;9.4;;
63690;SDS011;49837;57.280;27.070;2022-10-17T01:08:18;18.6;;;8.8;;
63690;SDS011;49837;57.280;27.070;2022-10-17T01:09:18;18.7;;;9.4;;
63690;SDS011;49837;57.280;27.070;2022-10-17T01:10:18;20.6;;;9.7;;
63690;SDS011;49837;57.280;27.070;2022-10-17T01:11:29;19.6;;;9.6;;
63690;SDS011;49837;57.280;27.070;2022-10-17T01:12:24;21.2;;;9.3;;
63690;SDS011;49837;57.280;27.070;2022-10-17T01:13:24;40.3;;;18.4;;
63690;SDS011;49837;57.280;27.070;2022-10-17T01:15:32;154.2;;;50.8;;
63690;SDS011;49837;57.280;27.070;2022-10-17T01:19:40;23.4;;;10.1;;
63690;SDS011;49837;57.280;27.070;2022-10-17T01:21:59;23.3;;;9.6;;
63690;SDS011;49837;57.280;27.070;2022-10-17T01:22:48;21.1;;;8.5;;
63690;SDS011;49837;57.280;27.070;2022-10-17T01:26:11;18.4;;;8.4;;
63690;SDS011;49837;57.280;27.070;2022-10-17T01:28:17;20.8;;;9.4;;
63690;SDS011;49837;57.280;27.070;2022-10-17T01:29:22;21.1;;;10.0;;
63690;SDS011;49837;57.280;27.070;2022-10-17T01:32:16;17.5;;;9.1;;
63690;SDS011;49837;57.280;27.070;2022-10-17T01:33:15;16.3;;;8.7;;
63690;SDS011;49837;57.280;27.070;2022-10-17T01:34:16;19.8;;;8.5;;
63690;SDS011;49837;57.280;27.070;2022-10-17T01:35:25;18.1;;;8.7;;
63690;SDS011;49837;57.280;27.070;2022-10-17T01:36:24;24.7;;;11.8;;
63690;SDS011;49837;57.280;27.070;2022-10-17T01:37:37;26.2;;;12.0;;
63690;SDS011;49837;57.280;27.070;2022-10-17T01:38:23;18.1;;;8.7;;
63690;SDS011;49837;57.280;27.070;2022-10-17T01:39:33;17.7;;;8.9;;
63690;SDS011;49837;57.280;27.070;2022-10-17T01:40:30;20.9;;;8.2;;
63690;SDS011;49837;57.280;27.070;2022-10-17T01:41:38;22.9;;;10.0;;
63690;SDS011;49837;57.280;27.070;2022-10-17T01:43:39;16.7;;;8.6;;
63690;SDS011;49837;57.280;27.070;2022-10-17T01:44:52;23.8;;;8.9;;
63690;SDS011;49837;57.280;27.070;2022-10-17T01:45:45;19.6;;;7.8;;
63690;SDS011;49837;57.280;27.070;2022-10-17T01:46:45;20.5;;;8.6;;
63690;SDS011;49837;57.280;27.070;2022-10-17T01:47:46;18.9;;;8.7;;
63690;SDS011;49837;57.280;27.070;2022-10-17T01:48:48;19.5;;;8.5;;
63690;SDS011;49837;57.280;27.070;2022-10-17T01:49:49;19.7;;;7.8;;
63690;SDS011;49837;57.280;27.070;2022-10-17T01:51:02;20.3;;;8.2;;
63690;SDS011;49837;57.280;27.070;2022-10-17T01:51:59;16.1;;;7.9;;
63690;SDS011;49837;57.280;27.070;2022-10-17T01:52:59;18.8;;;8.6;;
63690;SDS011;49837;57.280;27.070;2022-10-17T01:53:58;17.0;;;8.8;;
63690;SDS011;49837;57.280;27.070;2022-10-17T01:55:07;20.1;;;8.7;;
63690;SDS011;49837;57.280;27.070;2022-10-17T01:55:55;24.1;;;8.3;;
63690;SDS011;49837;57.280;27.070;2022-10-17T01:57:00;15.5;;;8.1;;
63690;SDS011;49837;57.280;27.070;2022-10-17T01:58:00;19.7;;;8.0;;
63690;SDS011;49837;57.280;27.070;2022-10-17T01:59:06;19.1;;;8.1;;
63690;SDS011;49837;57.280;27.070;2022-10-17T02:00:05;14.9;;;8.4;;
63690;SDS011;49837;57.280;27.070;2022-10-17T02:01:05;21.1;;;8.0;;
63690;SDS011;49837;57.280;27.070;2022-10-17T02:02:05;16.6;;;7.2;;
63690;SDS011;49837;57.280;27.070;2022-10-17T02:03:06;14.5;;;7.4;;
63690;SDS011;49837;57.280;27.070;2022-10-17T02:04:08;18.6;;;8.2;;
63690;SDS011;49837;57.280;27.070;2022-10-17T02:05:08;23.4;;;10.7;;
63690;SDS011;49837;57.280;27.070;2022-10-17T02:06:08;26.5;;;10.6;;
63690;SDS011;49837;57.280;27.070;2022-10-17T02:07:10;17.9;;;8.8;;
63690;SDS011;49837;57.280;27.070;2022-10-17T02:08:10;19.8;;;8.3;;
63690;SDS011;49837;57.280;27.070;2022-10-17T02:09:16;52.9;;;21.2;;
63690;SDS011;49837;57.280;27.070;2022-10-17T02:10:20;20.3;;;7.8;;
63690;SDS011;49837;57.280;27.070;2022-10-17T02:11:20;17.5;;;7.7;;
63690;SDS011;49837;57.280;27.070;2022-10-17T02:14:42;17.3;;;8.5;;
63690;SDS011;49837;57.280;27.070;2022-10-17T02:15:40;19.1;;;8.8;;
63690;SDS011;49837;57.280;27.070;2022-10-17T02:16:36;17.1;;;8.9;;
63690;SDS011;49837;57.280;27.070;2022-10-17T02:18:45;17.0;;;7.3;;
63690;SDS011;49837;57.280;27.070;2022-10-17T02:20:59;17.5;;;8.0;;
63690;SDS011;49837;57.280;27.070;2022-10-17T02:21:52;13.8;;;7.0;;
63690;SDS011;49837;57.280;27.070;2022-10-17T02:22:53;17.6;;;8.4;;
63690;SDS011;49837;57.280;27.070;2022-10-17T02:24:01;19.1;;;8.9;;
63690;SDS011;49837;57.280;27.070;2022-10-17T02:24:59;17.1;;;7.2;;
63690;SDS011;49837;57.280;27.070;2022-10-17T02:27:06;19.0;;;7.3;;
63690;SDS011;49837;57.280;27.070;2022-10-17T02:28:08;15.6;;;7.0;;
63690;SDS011;49837;57.280;27.070;2022-10-17T02:29:05;16.0;;;6.9;;
63690;SDS011;49837;57.280;27.070;2022-10-17T02:31:07;17.6;;;7.2;;
63690;SDS011;49837;57.280;27.070;2022-10-17T02:32:13;15.2;;;7.5;;
63690;SDS011;49837;57.280;27.070;2022-10-17T02:33:22;19.1;;;7.1;;
63690;SDS011;49837;57.280;27.070;2022-10-17T02:34:27;20.9;;;7.1;;
63690;SDS011;49837;57.280;27.070;2022-10-17T02:35:24;19.3;;;6.7;;
63690;SDS011;49837;57.280;27.070;2022-10-17T02:36:31;18.5;;;7.2;;
63690;SDS011;49837;57.280;27.070;2022-10-17T02:37:29;16.7;;;6.5;;
63690;SDS011;49837;57.280;27.070;2022-10-17T02:38:30;14.9;;;6.5;;
63690;SDS011;49837;57.280;27.070;2022-10-17T02:39:30;16.2;;;6.7;;
63690;SDS011;49837;57.280;27.070;2022-10-17T02:40:31;15.6;;;6.6;;
63690;SDS011;49837;57.280;27.070;2022-10-17T02:41:31;15.7;;;6.3;;
63690;SDS011;49837;57.280;27.070;2022-10-17T02:42:32;14.7;;;6.3;;
63690;SDS011;49837;57.280;27.070;2022-10-17T02:43:33;14.0;;;6.7;;
63690;SDS011;49837;57.280;27.070;2022-10-17T02:44:32;17.3;;;6.6;;
63690;SDS011;49837;57.280;27.070;2022-10-17T02:45:33;13.8;;;6.3;;
63690;SDS011;49837;57.280;27.070;2022-10-17T02:46:34;15.3;;;6.6;;
63690;SDS011;49837;57.280;27.070;2022-10-17T02:48:37;17.0;;;6.5;;
63690;SDS011;49837;57.280;27.070;2022-10-17T02:49:40;17.3;;;6.3;;
63690;SDS011;49837;57.280;27.070;2022-10-17T02:51:01;16.3;;;5.7;;
63690;SDS011;49837;57.280;27.070;2022-10-17T02:51:46;15.0;;;5.9;;
63690;SDS011;49837;57.280;27.070;2022-10-17T02:52:47;15.9;;;6.0;;
63690;SDS011;49837;57.280;27.070;2022-10-17T02:54:52;36.5;;;14.9;;
63690;SDS011;49837;57.280;27.070;2022-10-17T02:55:55;195.2;;;65.5;;
63690;SDS011;49837;57.280;27.070;2022-10-17T02:57:02;70.5;;;24.1;;
63690;SDS011;49837;57.280;27.070;2022-10-17T02:58:03;120.8;;;43.0;;
63690;SDS011;49837;57.280;27.070;2022-10-17T02:59:04;87.5;;;30.2;;
63690;SDS011;49837;57.280;27.070;2022-10-17T03:00:07;22.1;;;8.1;;
63690;SDS011;49837;57.280;27.070;2022-10-17T03:01:07;20.2;;;7.0;;
63690;SDS011;49837;57.280;27.070;2022-10-17T03:02:07;16.2;;;6.4;;
63690;SDS011;49837;57.280;27.070;2022-10-17T03:03:24;15.5;;;5.7;;
63690;SDS011;49837;57.280;27.070;2022-10-17T03:04:12;16.4;;;6.8;;
63690;SDS011;49837;57.280;27.070;2022-10-17T03:05:13;12.6;;;6.0;;
63690;SDS011;49837;57.280;27.070;2022-10-17T03:06:13;12.7;;;6.0;;
63690;SDS011;49837;57.280;27.070;2022-10-17T03:07:13;14.5;;;5.8;;
63690;SDS011;49837;57.280;27.070;2022-10-17T03:08:14;22.5;;;6.3;;
63690;SDS011;49837;57.280;27.070;2022-10-17T03:09:14;14.8;;;5.4;;
63690;SDS011;49837;57.280;27.070;2022-10-17T03:10:15;13.3;;;5.8;;
63690;SDS011;49837;57.280;27.070;2022-10-17T03:11:15;14.9;;;5.8;;
63690;SDS011;49837;57.280;27.070;2022-10-17T03:12:15;14.0;;;5.9;;
63690;SDS011;49837;57.280;27.070;2022-10-17T03:13:16;17.7;;;5.8;;
63690;SDS011;49837;57.280;27.070;2022-10-17T03:14:16;15.0;;;5.7;;
63690;SDS011;49837;57.280;27.070;2022-10-17T03:15:17;15.8;;;6.1;;
63690;SDS011;49837;57.280;27.070;2022-10-17T03:16:17;14.8;;;5.3;;
63690;SDS011;49837;57.280;27.070;2022-10-17T03:17:17;17.5;;;5.9;;
63690;SDS011;49837;57.280;27.070;2022-10-17T03:18:18;10.9;;;5.1;;
63690;SDS011;49837;57.280;27.070;2022-10-17T03:19:18;14.3;;;5.3;;
63690;SDS011;49837;57.280;27.070;2022-10-17T03:20:19;14.7;;;5.4;;
63690;SDS011;49837;57.280;27.070;2022-10-17T03:21:19;16.4;;;5.7;;
63690;SDS011;49837;57.280;27.070;2022-10-17T03:22:19;15.8;;;5.5;;
63690;SDS011;49837;57.280;27.070;2022-10-17T03:23:20;15.7;;;5.5;;
63690;SDS011;49837;57.280;27.070;2022-10-17T03:24:20;16.0;;;5.6;;
63690;SDS011;49837;57.280;27.070;2022-10-17T03:25:21;14.3;;;5.2;;
63690;SDS011;49837;57.280;27.070;2022-10-17T03:26:21;14.0;;;5.2;;
63690;SDS011;49837;57.280;27.070;2022-10-17T03:27:21;17.3;;;5.2;;
63690;SDS011;49837;57.280;27.070;2022-10-17T03:28:22;13.4;;;5.0;;
63690;SDS011;49837;57.280;27.070;2022-10-17T03:29:22;14.5;;;4.9;;
63690;SDS011;49837;57.280;27.070;2022-10-17T03:30:23;11.5;;;4.9;;
63690;SDS011;49837;57.280;27.070;2022-10-17T03:31:23;13.2;;;5.0;;
63690;SDS011;49837;57.280;27.070;2022-10-17T03:32:24;13.1;;;5.4;;
63690;SDS011;49837;57.280;27.070;2022-10-17T03:33:24;15.7;;;5.0;;
63690;SDS011;49837;57.280;27.070;2022-10-17T03:34:24;13.6;;;5.1;;
63690;SDS011;49837;57.280;27.070;2022-10-17T03:35:25;15.6;;;5.1;;
63690;SDS011;49837;57.280;27.070;2022-10-17T03:36:25;13.0;;;5.0;;
63690;SDS011;49837;57.280;27.070;2022-10-17T03:37:25;19.1;;;4.6;;
63690;SDS011;49837;57.280;27.070;2022-10-17T03:38:26;17.5;;;4.9;;
63690;SDS011;49837;57.280;27.070;2022-10-17T03:39:26;16.9;;;5.3;;
63690;SDS011;49837;57.280;27.070;2022-10-17T03:40:27;17.8;;;6.4;;
63690;SDS011;49837;57.280;27.070;2022-10-17T03:41:27;206.2;;;83.4;;
63690;SDS011;49837;57.280;27.070;2022-10-17T03:42:28;349.1;;;127.1;;
63690;SDS011;49837;57.280;27.070;2022-10-17T03:43:28;286.3;;;102.9;;
63690;SDS011;49837;57.280;27.070;2022-10-17T03:44:28;125.0;;;43.8;;
63690;SDS011;49837;57.280;27.070;2022-10-17T03:45:29;32.4;;;11.6;;
63690;SDS011;49837;57.280;27.070;2022-10-17T03:46:29;19.3;;;8.3;;
63690;SDS011;49837;57.280;27.070;2022-10-17T03:47:30;60.2;;;30.0;;
63690;SDS011;49837;57.280;27.070;2022-10-17T03:48:31;38.1;;;20.1;;
63690;SDS011;49837;57.280;27.070;2022-10-17T03:49:30;18.1;;;6.3;;
63690;SDS011;49837;57.280;27.070;2022-10-17T03:50:31;12.7;;;6.0;;
63690;SDS011;49837;57.280;27.070;2022-10-17T03:51:32;16.0;;;6.0;;
63690;SDS011;49837;57.280;27.070;2022-10-17T03:52:32;14.3;;;5.0;;
63690;SDS011;49837;57.280;27.070;2022-10-17T03:53:32;14.6;;;4.8;;
63690;SDS011;49837;57.280;27.070;2022-10-17T03:54:33;16.6;;;5.8;;
63690;SDS011;49837;57.280;27.070;2022-10-17T03:55:33;17.7;;;9.0;;
63690;SDS011;49837;57.280;27.070;2022-10-17T03:56:33;15.8;;;6.3;;
63690;SDS011;49837;57.280;27.070;2022-10-17T03:57:34;16.8;;;5.2;;
63690;SDS011;49837;57.280;27.070;2022-10-17T03:58:34;15.3;;;5.0;;
63690;SDS011;49837;57.280;27.070;2022-10-17T03:59:35;13.9;;;4.0;;
63690;SDS011;49837;57.280;27.070;2022-10-17T04:00:35;14.0;;;4.3;;
63690;SDS011;49837;57.280;27.070;2022-10-17T04:01:35;14.3;;;3.9;;
63690;SDS011;49837;57.280;27.070;2022-10-17T04:02:36;11.7;;;4.0;;
63690;SDS011;49837;57.280;27.070;2022-10-17T04:03:36;14.4;;;4.9;;
63690;SDS011;49837;57.280;27.070;2022-10-17T04:04:37;15.3;;;4.6;;
63690;SDS011;49837;57.280;27.070;2022-10-17T04:05:37;17.7;;;4.3;;
63690;SDS011;49837;57.280;27.070;2022-10-17T04:06:38;14.9;;;4.6;;
63690;SDS011;49837;57.280;27.070;2022-10-17T04:07:38;21.5;;;4.3;;
63690;SDS011;49837;57.280;27.070;2022-10-17T04:08:38;14.9;;;4.1;;
63690;SDS011;49837;57.280;27.070;2022-10-17T04:09:39;14.6;;;3.4;;
63690;SDS011;49837;57.280;27.070;2022-10-17T04:10:39;17.9;;;4.2;;
63690;SDS011;49837;57.280;27.070;2022-10-17T04:11:40;17.2;;;4.3;;
63690;SDS011;49837;57.280;27.070;2022-10-17T04:12:40;14.2;;;3.7;;
63690;SDS011;49837;57.280;27.070;2022-10-17T04:13:40;13.2;;;3.6;;
63690;SDS011;49837;57.280;27.070;2022-10-17T04:14:41;14.2;;;3.9;;
63690;SDS011;49837;57.280;27.070;2022-10-17T04:15:41;14.1;;;3.8;;
63690;SDS011;49837;57.280;27.070;2022-10-17T04:16:42;14.1;;;4.4;;
63690;SDS011;49837;57.280;27.070;2022-10-17T04:17:42;16.4;;;4.6;;
63690;SDS011;49837;57.280;27.070;2022-10-17T04:18:43;13.3;;;4.5;;
63690;SDS011;49837;57.280;27.070;2022-10-17T04:19:43;14.5;;;3.9;;
63690;SDS011;49837;57.280;27.070;2022-10-17T04:20:43;13.4;;;3.7;;
63690;SDS011;49837;57.280;27.070;2022-10-17T04:21:44;13.7;;;3.8;;
63690;SDS011;49837;57.280;27.070;2022-10-17T04:22:44;15.9;;;3.5;;
63690;SDS011;49837;57.280;27.070;2022-10-17T04:23:45;11.7;;;3.1;;
63690;SDS011;49837;57.280;27.070;2022-10-17T04:24:45;12.8;;;3.4;;
63690;SDS011;49837;57.280;27.070;2022-10-17T04:25:46;18.9;;;4.0;;
63690;SDS011;49837;57.280;27.070;2022-10-17T04:26:48;18.3;;;4.4;;
63690;SDS011;49837;57.280;27.070;2022-10-17T04:27:46;13.0;;;4.2;;
63690;SDS011;49837;57.280;27.070;2022-10-17T04:28:47;13.8;;;3.6;;
63690;SDS011;49837;57.280;27.070;2022-10-17T04:29:47;16.2;;;3.8;;
63690;SDS011;49837;57.280;27.070;2022-10-17T04:30:54;12.2;;;3.7;;
63690;SDS011;49837;57.280;27.070;2022-10-17T04:31:50;19.3;;;4.1;;
63690;SDS011;49837;57.280;27.070;2022-10-17T04:32:51;15.1;;;3.7;;
63690;SDS011;49837;57.280;27.070;2022-10-17T04:33:51;14.3;;;3.0;;
63690;SDS011;49837;57.280;27.070;2022-10-17T04:34:52;12.0;;;3.3;;
63690;SDS011;49837;57.280;27.070;2022-10-17T04:36:10;33.9;;;13.0;;
63690;SDS011;49837;57.280;27.070;2022-10-17T04:36:52;109.7;;;39.4;;
63690;SDS011;49837;57.280;27.070;2022-10-17T04:37:53;96.7;;;32.3;;
63690;SDS011;49837;57.280;27.070;2022-10-17T04:38:53;158.2;;;53.5;;
63690;SDS011;49837;57.280;27.070;2022-10-17T04:39:54;27.0;;;8.5;;
63690;SDS011;49837;57.280;27.070;2022-10-17T04:40:57;18.9;;;4.7;;
63690;SDS011;49837;57.280;27.070;2022-10-17T04:41:58;14.6;;;4.0;;
63690;SDS011;49837;57.280;27.070;2022-10-17T04:42:59;14.0;;;3.9;;
63690;SDS011;49837;57.280;27.070;2022-10-17T04:43:59;10.8;;;3.7;;
63690;SDS011;49837;57.280;27.070;2022-10-17T04:44:59;16.2;;;3.5;;
63690;SDS011;49837;57.280;27.070;2022-10-17T04:46:01;9.4;;;3.5;;
63690;SDS011;49837;57.280;27.070;2022-10-17T04:47:00;14.2;;;4.0;;
63690;SDS011;49837;57.280;27.070;2022-10-17T04:48:01;12.7;;;3.4;;
63690;SDS011;49837;57.280;27.070;2022-10-17T04:49:01;12.4;;;4.1;;
63690;SDS011;49837;57.280;27.070;2022-10-17T04:50:02;12.0;;;3.9;;
63690;SDS011;49837;57.280;27.070;2022-10-17T04:51:03;16.2;;;4.5;;
63690;SDS011;49837;57.280;27.070;2022-10-17T04:52:03;14.9;;;3.9;;
63690;SDS011;49837;57.280;27.070;2022-10-17T04:53:04;20.5;;;4.5;;
63690;SDS011;49837;57.280;27.070;2022-10-17T04:54:04;16.9;;;4.2;;
63690;SDS011;49837;57.280;27.070;2022-10-17T04:55:05;13.2;;;3.9;;
63690;SDS011;49837;57.280;27.070;2022-10-17T04:56:09;14.8;;;3.6;;
63690;SDS011;49837;57.280;27.070;2022-10-17T04:57:06;10.5;;;3.2;;
63690;SDS011;49837;57.280;27.070;2022-10-17T04:58:06;12.8;;;3.5;;
63690;SDS011;49837;57.280;27.070;2022-10-17T04:59:07;11.7;;;3.0;;
63690;SDS011;49837;57.280;27.070;2022-10-17T05:00:07;20.4;;;4.3;;
63690;SDS011;49837;57.280;27.070;2022-10-17T05:01:08;13.4;;;3.7;;
63690;SDS011;49837;57.280;27.070;2022-10-17T05:02:10;12.6;;;3.5;;
63690;SDS011;49837;57.280;27.070;2022-10-17T05:03:11;15.1;;;3.5;;
63690;SDS011;49837;57.280;27.070;2022-10-17T05:04:11;14.8;;;3.4;;
63690;SDS011;49837;57.280;27.070;2022-10-17T05:05:12;14.0;;;3.7;;
63690;SDS011;49837;57.280;27.070;2022-10-17T05:06:13;10.8;;;3.9;;
63690;SDS011;49837;57.280;27.070;2022-10-17T05:07:13;14.3;;;3.7;;
63690;SDS011;49837;57.280;27.070;2022-10-17T05:08:14;13.8;;;3.9;;
63690;SDS011;49837;57.280;27.070;2022-10-17T05:09:14;19.0;;;3.7;;
63690;SDS011;49837;57.280;27.070;2022-10-17T05:10:14;14.5;;;3.4;;
63690;SDS011;49837;57.280;27.070;2022-10-17T05:11:16;16.8;;;3.9;;
63690;SDS011;49837;57.280;27.070;2022-10-17T05:12:15;18.1;;;3.3;;
63690;SDS011;49837;57.280;27.070;2022-10-17T05:13:15;13.7;;;3.6;;
63690;SDS011;49837;57.280;27.070;2022-10-17T05:14:16;12.7;;;3.2;;
63690;SDS011;49837;57.280;27.070;2022-10-17T05:15:16;14.4;;;4.3;;
63690;SDS011;49837;57.280;27.070;2022-10-17T05:16:17;15.2;;;3.6;;
63690;SDS011;49837;57.280;27.070;2022-10-17T05:17:17;12.6;;;3.3;;
63690;SDS011;49837;57.280;27.070;2022-10-17T05:18:18;11.7;;;3.0;;
63690;SDS011;49837;57.280;27.070;2022-10-17T05:19:18;13.3;;;3.4;;
63690;SDS011;49837;57.280;27.070;2022-10-17T05:20:18;15.6;;;3.5;;
63690;SDS011;49837;57.280;27.070;2022-10-17T05:21:19;16.0;;;3.7;;
63690;SDS011;49837;57.280;27.070;2022-10-17T05:22:19;11.7;;;3.2;;
63690;SDS011;49837;57.280;27.070;2022-10-17T05:23:20;17.3;;;3.7;;
63690;SDS011;49837;57.280;27.070;2022-10-17T05:24:20;30.6;;;13.0;;
63690;SDS011;49837;57.280;27.070;2022-10-17T05:25:20;156.5;;;62.2;;
63690;SDS011;49837;57.280;27.070;2022-10-17T05:26:21;257.5;;;92.4;;
63690;SDS011;49837;57.280;27.070;2022-10-17T05:27:21;289.0;;;105.7;;
63690;SDS011;49837;57.280;27.070;2022-10-17T05:28:22;24.7;;;7.4;;
63690;SDS011;49837;57.280;27.070;2022-10-17T05:29:22;20.7;;;4.4;;
63690;SDS011;49837;57.280;27.070;2022-10-17T05:30:23;18.1;;;4.0;;
63690;SDS011;49837;57.280;27.070;2022-10-17T05:31:23;8.9;;;3.3;;
63690;SDS011;49837;57.280;27.070;2022-10-17T05:32:23;14.2;;;3.6;;
63690;SDS011;49837;57.280;27.070;2022-10-17T05:33:24;8.9;;;3.0;;
63690;SDS011;49837;57.280;27.070;2022-10-17T05:34:24;14.5;;;3.6;;
63690;SDS011;49837;57.280;27.070;2022-10-17T05:35:25;16.0;;;4.0;;
63690;SDS011;49837;57.280;27.070;2022-10-17T05:36:25;13.8;;;3.7;;
63690;SDS011;49837;57.280;27.070;2022-10-17T05:37:27;9.5;;;3.7;;
63690;SDS011;49837;57.280;27.070;2022-10-17T05:38:26;15.1;;;3.9;;
63690;SDS011;49837;57.280;27.070;2022-10-17T05:39:26;13.4;;;3.6;;
63690;SDS011;49837;57.280;27.070;2022-10-17T05:40:27;14.6;;;3.4;;
63690;SDS011;49837;57.280;27.070;2022-10-17T05:41:27;11.6;;;3.4;;
63690;SDS011;49837;57.280;27.070;2022-10-17T05:42:28;15.3;;;3.5;;
63690;SDS011;49837;57.280;27.070;2022-10-17T05:43:28;17.3;;;4.0;;
63690;SDS011;49837;57.280;27.070;2022-10-17T05:44:28;11.9;;;3.3;;
63690;SDS011;49837;57.280;27.070;2022-10-17T05:45:29;11.6;;;3.1;;
63690;SDS011;49837;57.280;27.070;2022-10-17T05:46:29;15.9;;;3.1;;
63690;SDS011;49837;57.280;27.070;2022-10-17T05:47:30;17.6;;;3.4;;
63690;SDS011;49837;57.280;27.070;2022-10-17T05:48:30;11.1;;;3.1;;
63690;SDS011;49837;57.280;27.070;2022-10-17T05:49:30;11.5;;;3.2;;
63690;SDS011;49837;57.280;27.070;2022-10-17T05:50:34;14.5;;;3.6;;
63690;SDS011;49837;57.280;27.070;2022-10-17T05:51:35;13.7;;;3.4;;
63690;SDS011;49837;57.280;27.070;2022-10-17T05:52:35;15.5;;;3.8;;
63690;SDS011;49837;57.280;27.070;2022-10-17T05:53:39;14.9;;;2.9;;
63690;SDS011;49837;57.280;27.070;2022-10-17T05:54:37;11.2;;;2.9;;
63690;SDS011;49837;57.280;27.070;2022-10-17T05:55:37;11.8;;;3.1;;
63690;SDS011;49837;57.280;27.070;2022-10-17T05:56:38;16.1;;;3.4;;
63690;SDS011;49837;57.280;27.070;2022-10-17T05:57:38;12.7;;;2.9;;
63690;SDS011;49837;57.280;27.070;2022-10-17T05:58:39;16.2;;;2.6;;
63690;SDS011;49837;57.280;27.070;2022-10-17T05:59:43;16.9;;;2.8;;
63690;SDS011;49837;57.280;27.070;2022-10-17T06:00:43;13.7;;;2.9;;
63690;SDS011;49837;57.280;27.070;2022-10-17T06:01:44;13.5;;;2.7;;
63690;SDS011;49837;57.280;27.070;2022-10-17T06:02:44;17.6;;;3.2;;
63690;SDS011;49837;57.280;27.070;2022-10-17T06:03:45;14.8;;;2.9;;
63690;SDS011;49837;57.280;27.070;2022-10-17T06:04:45;12.1;;;3.1;;
63690;SDS011;49837;57.280;27.070;2022-10-17T06:05:46;13.5;;;2.7;;
63690;SDS011;49837;57.280;27.070;2022-10-17T06:06:46;19.4;;;3.6;;
63690;SDS011;49837;57.280;27.070;2022-10-17T06:07:46;15.6;;;2.9;;
63690;SDS011;49837;57.280;27.070;2022-10-17T06:08:47;13.6;;;2.9;;
63690;SDS011;49837;57.280;27.070;2022-10-17T06:09:47;10.8;;;2.9;;
63690;SDS011;49837;57.280;27.070;2022-10-17T06:10:48;11.2;;;2.7;;
63690;SDS011;49837;57.280;27.070;2022-10-17T06:11:48;15.4;;;2.9;;
63690;SDS011;49837;57.280;27.070;2022-10-17T06:12:48;10.3;;;2.6;;
63690;SDS011;49837;57.280;27.070;2022-10-17T06:13:49;12.8;;;3.4;;
63690;SDS011;49837;57.280;27.070;2022-10-17T06:14:49;10.9;;;2.4;;
63690;SDS011;49837;57.280;27.070;2022-10-17T06:15:50;10.5;;;2.8;;
63690;SDS011;49837;57.280;27.070;2022-10-17T06:16:50;13.2;;;2.8;;
63690;SDS011;49837;57.280;27.070;2022-10-17T06:17:51;10.2;;;2.5;;
63690;SDS011;49837;57.280;27.070;2022-10-17T06:18:51;23.0;;;7.4;;
63690;SDS011;49837;57.280;27.070;2022-10-17T06:19:51;18.9;;;4.6;;
63690;SDS011;49837;57.280;27.070;2022-10-17T06:20:52;80.3;;;28.9;;
63690;SDS011;49837;57.280;27.070;2022-10-17T06:21:52;192.6;;;65.3;;
63690;SDS011;49837;57.280;27.070;2022-10-17T06:22:53;79.6;;;26.3;;
63690;SDS011;49837;57.280;27.070;2022-10-17T06:23:53;22.4;;;5.1;;
63690;SDS011;49837;57.280;27.070;2022-10-17T06:24:53;12.0;;;2.9;;
63690;SDS011;49837;57.280;27.070;2022-10-17T06:25:56;15.2;;;3.2;;